createdAt,value
2018-12-19T00:09:26.446Z,19.93
2018-12-19T00:19:44.849Z,22.47
2018-12-19T00:30:03.597Z,33.10
2018-12-19T00:40:22.603Z,29.67
2018-12-19T00:50:41.634Z,19.83
2018-12-19T01:00:59.900Z,21.30
2018-12-19T01:11:19.298Z,23.40
2018-12-19T01:21:38.219Z,19.13
2018-12-19T01:31:58.104Z,18.10
2018-12-19T01:42:16.665Z,14.93
2018-12-19T01:52:35.700Z,16.30
2018-12-19T02:02:56.409Z,17.23
2018-12-19T02:13:15.097Z,20.23
2018-12-19T02:23:33.695Z,26.53
2018-12-19T02:33:53.740Z,26.77
2018-12-19T02:44:13.396Z,28.93
2018-12-19T02:54:33.299Z,28.80
2018-12-19T03:04:52.757Z,33.37
2018-12-19T03:15:12.156Z,34.73
2018-12-19T03:25:30.494Z,24.60
2018-12-19T03:35:50.734Z,23.60
2018-12-19T03:46:09.558Z,24.33
2018-12-19T03:56:28.107Z,23.20
2018-12-19T04:06:47.116Z,27.53
2018-12-19T04:17:05.878Z,28.27
2018-12-19T04:27:25.062Z,27.60
2018-12-19T04:37:44.372Z,27.87
2018-12-19T04:48:03.619Z,26.20
2018-12-19T04:58:22.080Z,28.30
2018-12-19T05:08:40.562Z,29.33
2018-12-19T05:18:58.711Z,28.03
2018-12-19T05:29:17.286Z,28.53
2018-12-19T05:39:36.395Z,26.67
2018-12-19T05:49:54.786Z,30.37
2018-12-19T06:00:13.387Z,32.33
2018-12-19T06:10:32.206Z,34.63
2018-12-19T06:20:51.414Z,36.30
2018-12-19T06:31:09.788Z,34.87
2018-12-19T06:41:29.132Z,30.97
2018-12-19T06:51:48.797Z,33.37
2018-12-19T07:02:08.066Z,33.47
2018-12-19T07:12:26.937Z,41.77
2018-12-19T07:22:46.441Z,34.83
2018-12-19T07:33:05.465Z,35.90
2018-12-19T07:43:24.594Z,31.30
2018-12-19T07:53:43.616Z,33.93
2018-12-19T08:04:06.007Z,29.23
2018-12-19T08:14:27.472Z,30.63
2018-12-19T08:24:46.220Z,31.00
2018-12-19T08:35:12.123Z,29.00
2018-12-19T08:57:38.859Z,28.63
2018-12-19T09:07:57.538Z,28.67
2018-12-19T09:18:16.599Z,26.50
2018-12-19T09:28:38.735Z,25.77
2018-12-19T09:38:57.300Z,27.87
2018-12-19T09:49:16.763Z,26.97
2018-12-19T09:59:35.879Z,27.37
2018-12-19T10:09:55.512Z,26.97
2018-12-19T10:20:15.002Z,26.43
2018-12-19T10:30:47.628Z,27.60
2018-12-19T10:41:05.998Z,27.30
2018-12-19T10:51:26.068Z,26.33
2018-12-19T11:01:44.957Z,23.43
2018-12-19T11:12:05.124Z,26.40
2018-12-19T11:22:23.955Z,24.37
2018-12-19T11:32:43.050Z,24.13
2018-12-19T11:43:02.451Z,26.00
2018-12-19T11:53:22.089Z,26.17
2018-12-19T12:03:40.519Z,26.20
2018-12-19T12:13:59.509Z,26.77
2018-12-19T12:24:19.395Z,47.27
2018-12-19T12:34:38.369Z,38.13
2018-12-19T12:44:57.581Z,28.03
2018-12-19T12:55:16.781Z,25.47
2018-12-19T13:05:36.089Z,25.47
2018-12-19T13:15:55.805Z,26.43
2018-12-19T13:26:16.038Z,28.90
2018-12-19T13:36:35.896Z,28.43
2018-12-19T13:46:55.059Z,28.43
2018-12-19T13:57:13.555Z,27.67
2018-12-19T14:07:32.389Z,28.30
2018-12-19T14:17:51.214Z,31.77
2018-12-19T14:28:10.071Z,29.47
2018-12-19T14:38:29.598Z,31.53
2018-12-19T14:48:48.704Z,45.03
2018-12-19T14:59:07.427Z,37.63
2018-12-19T15:09:26.470Z,47.20
2018-12-19T15:19:45.204Z,48.77
2018-12-19T15:30:04.591Z,54.83
2018-12-19T15:40:23.912Z,37.40
2018-12-19T15:50:43.107Z,32.67
2018-12-19T16:01:02.684Z,42.57
2018-12-19T16:11:21.647Z,36.40
2018-12-19T16:21:41.147Z,40.80
2018-12-19T16:32:00.599Z,41.50
2018-12-19T16:42:21.035Z,41.60
2018-12-19T16:52:41.234Z,48.27
2018-12-19T17:03:01.002Z,48.97
2018-12-19T17:13:19.777Z,67.87
2018-12-19T17:23:49.712Z,55.83
2018-12-19T17:45:23.127Z,37.70
2018-12-19T17:55:42.101Z,35.73
2018-12-19T18:06:08.479Z,53.33
2018-12-19T18:28:06.861Z,42.40
2018-12-19T18:38:26.784Z,39.20
2018-12-19T18:49:05.112Z,40.53
2018-12-19T18:59:22.929Z,60.13
2018-12-19T19:09:43.795Z,44.83
2018-12-19T19:20:03.811Z,59.33
2018-12-19T19:30:24.609Z,46.90
2018-12-19T19:40:43.466Z,62.40
2018-12-19T19:51:04.920Z,73.10
2018-12-19T20:01:24.047Z,48.97
2018-12-19T20:11:42.999Z,45.63
2018-12-19T20:22:01.820Z,81.77
2018-12-19T20:32:21.101Z,56.80
2018-12-19T20:42:40.563Z,57.20
2018-12-19T20:52:59.898Z,55.00
2018-12-19T21:03:18.913Z,56.93
2018-12-19T21:13:38.036Z,46.77
2018-12-19T21:23:57.200Z,54.60
2018-12-19T21:34:16.518Z,41.07
2018-12-19T21:44:35.327Z,39.17
2018-12-19T21:54:55.030Z,36.10
2018-12-19T22:05:13.715Z,35.77
2018-12-19T22:15:32.940Z,37.20
2018-12-19T22:25:56.671Z,35.47
2018-12-19T22:36:15.881Z,34.57
2018-12-19T22:46:35.316Z,35.10
2018-12-19T22:56:55.742Z,39.30
2018-12-19T23:07:14.346Z,39.57
2018-12-19T23:17:42.619Z,36.80
2018-12-19T23:28:21.799Z,35.20
2018-12-19T23:38:42.708Z,37.03
